sensor_id;sensor_type;location;lat;lon;timestamp;P1;durP1;ratioP1;P2;durP2;ratioP2
16820;SDS011;8527;49.740;6.604;2023-03-14T00:01:57;6.85;;;1.88;;
16820;SDS011;8527;49.740;6.604;2023-03-14T00:06:55;9.95;;;2.08;;
16820;SDS011;8527;49.740;6.604;2023-03-14T00:11:57;12.15;;;2.35;;
16820;SDS011;8527;49.740;6.604;2023-03-14T00:16:59;11.48;;;2.00;;
16820;SDS011;8527;49.740;6.604;2023-03-14T00:21:58;14.60;;;2.25;;
16820;SDS011;8527;49.740;6.604;2023-03-14T00:27:01;8.50;;;1.80;;
16820;SDS011;8527;49.740;6.604;2023-03-14T00:32:03;11.60;;;2.10;;
16820;SDS011;8527;49.740;6.604;2023-03-14T00:37:01;9.65;;;2.58;;
16820;SDS011;8527;49.740;6.604;2023-03-14T00:42:02;8.13;;;2.08;;
16820;SDS011;8527;49.740;6.604;2023-03-14T00:47:01;5.97;;;2.10;;
16820;SDS011;8527;49.740;6.604;2023-03-14T00:51:59;7.63;;;2.20;;
16820;SDS011;8527;49.740;6.604;2023-03-14T00:56:58;10.20;;;2.05;;
16820;SDS011;8527;49.740;6.604;2023-03-14T01:02:04;12.07;;;2.55;;
16820;SDS011;8527;49.740;6.604;2023-03-14T01:07:03;17.40;;;3.15;;
16820;SDS011;8527;49.740;6.604;2023-03-14T01:12:03;14.35;;;2.90;;
16820;SDS011;8527;49.740;6.604;2023-03-14T01:17:04;10.02;;;2.35;;
16820;SDS011;8527;49.740;6.604;2023-03-14T01:22:03;10.73;;;2.72;;
16820;SDS011;8527;49.740;6.604;2023-03-14T01:27:01;12.68;;;3.08;;
16820;SDS011;8527;49.740;6.604;2023-03-14T01:32:00;11.45;;;2.58;;
16820;SDS011;8527;49.740;6.604;2023-03-14T01:37:11;11.95;;;2.28;;
16820;SDS011;8527;49.740;6.604;2023-03-14T01:42:12;13.48;;;3.45;;
16820;SDS011;8527;49.740;6.604;2023-03-14T01:47:11;18.65;;;3.42;;
16820;SDS011;8527;49.740;6.604;2023-03-14T01:52:12;9.93;;;2.22;;
16820;SDS011;8527;49.740;6.604;2023-03-14T01:57:14;11.75;;;2.00;;
16820;SDS011;8527;49.740;6.604;2023-03-14T02:02:20;11.88;;;2.30;;
16820;SDS011;8527;49.740;6.604;2023-03-14T02:07:23;6.13;;;2.25;;
16820;SDS011;8527;49.740;6.604;2023-03-14T02:12:28;9.52;;;2.38;;
16820;SDS011;8527;49.740;6.604;2023-03-14T02:17:27;11.68;;;1.92;;
16820;SDS011;8527;49.740;6.604;2023-03-14T02:22:28;12.30;;;2.13;;
16820;SDS011;8527;49.740;6.604;2023-03-14T02:27:31;14.73;;;2.30;;
16820;SDS011;8527;49.740;6.604;2023-03-14T02:32:31;10.75;;;2.10;;
16820;SDS011;8527;49.740;6.604;2023-03-14T02:37:33;14.95;;;2.80;;
16820;SDS011;8527;49.740;6.604;2023-03-14T02:42:46;8.15;;;1.75;;
16820;SDS011;8527;49.740;6.604;2023-03-14T02:47:46;15.25;;;2.08;;
16820;SDS011;8527;49.740;6.604;2023-03-14T02:52:47;11.07;;;1.75;;
16820;SDS011;8527;49.740;6.604;2023-03-14T02:57:49;12.63;;;1.92;;
16820;SDS011;8527;49.740;6.604;2023-03-14T03:02:53;11.90;;;2.22;;
16820;SDS011;8527;49.740;6.604;2023-03-14T03:07:59;7.47;;;1.80;;
16820;SDS011;8527;49.740;6.604;2023-03-14T03:13:08;8.95;;;1.98;;
16820;SDS011;8527;49.740;6.604;2023-03-14T03:18:11;9.60;;;2.08;;
16820;SDS011;8527;49.740;6.604;2023-03-14T03:23:10;10.73;;;1.80;;
16820;SDS011;8527;49.740;6.604;2023-03-14T03:28:12;12.55;;;1.92;;
16820;SDS011;8527;49.740;6.604;2023-03-14T03:33:16;9.32;;;1.92;;
16820;SDS011;8527;49.740;6.604;2023-03-14T03:38:14;7.32;;;1.70;;
16820;SDS011;8527;49.740;6.604;2023-03-14T03:43:17;8.18;;;1.58;;
16820;SDS011;8527;49.740;6.604;2023-03-14T03:48:23;6.68;;;1.70;;
16820;SDS011;8527;49.740;6.604;2023-03-14T03:53:22;9.75;;;1.90;;
16820;SDS011;8527;49.740;6.604;2023-03-14T03:58:26;5.95;;;1.45;;
16820;SDS011;8527;49.740;6.604;2023-03-14T04:03:24;8.32;;;1.48;;
16820;SDS011;8527;49.740;6.604;2023-03-14T04:08:23;11.70;;;1.67;;
16820;SDS011;8527;49.740;6.604;2023-03-14T04:13:21;7.13;;;1.50;;
16820;SDS011;8527;49.740;6.604;2023-03-14T04:18:26;6.22;;;1.20;;
16820;SDS011;8527;49.740;6.604;2023-03-14T04:23:31;10.85;;;1.75;;
16820;SDS011;8527;49.740;6.604;2023-03-14T04:28:31;7.53;;;1.35;;
16820;SDS011;8527;49.740;6.604;2023-03-14T04:33:34;5.25;;;0.93;;
16820;SDS011;8527;49.740;6.604;2023-03-14T04:38:42;3.50;;;1.05;;
16820;SDS011;8527;49.740;6.604;2023-03-14T04:43:48;9.48;;;1.48;;
16820;SDS011;8527;49.740;6.604;2023-03-14T04:48:49;4.85;;;1.20;;
16820;SDS011;8527;49.740;6.604;2023-03-14T04:53:52;5.93;;;1.40;;
16820;SDS011;8527;49.740;6.604;2023-03-14T04:58:59;6.07;;;1.48;;
16820;SDS011;8527;49.740;6.604;2023-03-14T05:04:06;7.75;;;1.40;;
16820;SDS011;8527;49.740;6.604;2023-03-14T05:09:10;8.13;;;1.47;;
16820;SDS011;8527;49.740;6.604;2023-03-14T05:14:25;8.07;;;1.80;;
16820;SDS011;8527;49.740;6.604;2023-03-14T05:19:26;9.18;;;1.63;;
16820;SDS011;8527;49.740;6.604;2023-03-14T05:24:24;7.30;;;1.38;;
16820;SDS011;8527;49.740;6.604;2023-03-14T05:29:23;7.60;;;1.50;;
16820;SDS011;8527;49.740;6.604;2023-03-14T05:34:21;8.82;;;1.27;;
16820;SDS011;8527;49.740;6.604;2023-03-14T05:39:25;6.50;;;1.83;;
16820;SDS011;8527;49.740;6.604;2023-03-14T05:44:24;6.20;;;1.23;;
16820;SDS011;8527;49.740;6.604;2023-03-14T05:49:22;8.10;;;1.75;;
16820;SDS011;8527;49.740;6.604;2023-03-14T05:54:20;6.55;;;1.45;;
16820;SDS011;8527;49.740;6.604;2023-03-14T05:59:25;6.65;;;1.65;;
16820;SDS011;8527;49.740;6.604;2023-03-14T06:04:26;4.20;;;1.35;;
16820;SDS011;8527;49.740;6.604;2023-03-14T06:09:30;12.57;;;1.50;;
16820;SDS011;8527;49.740;6.604;2023-03-14T06:14:34;3.70;;;0.90;;
16820;SDS011;8527;49.740;6.604;2023-03-14T06:19:33;4.97;;;1.05;;
16820;SDS011;8527;49.740;6.604;2023-03-14T06:24:35;5.47;;;1.20;;
16820;SDS011;8527;49.740;6.604;2023-03-14T06:29:36;2.03;;;0.88;;
16820;SDS011;8527;49.740;6.604;2023-03-14T06:34:34;3.83;;;0.90;;
16820;SDS011;8527;49.740;6.604;2023-03-14T06:39:33;2.83;;;1.08;;
16820;SDS011;8527;49.740;6.604;2023-03-14T06:44:36;3.63;;;1.45;;
16820;SDS011;8527;49.740;6.604;2023-03-14T06:49:34;6.43;;;1.33;;
16820;SDS011;8527;49.740;6.604;2023-03-14T06:54:34;4.00;;;1.10;;
16820;SDS011;8527;49.740;6.604;2023-03-14T06:59:44;5.97;;;1.77;;
16820;SDS011;8527;49.740;6.604;2023-03-14T07:04:45;2.20;;;0.65;;
16820;SDS011;8527;49.740;6.604;2023-03-14T07:09:44;2.88;;;0.90;;
16820;SDS011;8527;49.740;6.604;2023-03-14T07:14:47;2.17;;;1.00;;
16820;SDS011;8527;49.740;6.604;2023-03-14T07:19:46;2.45;;;1.00;;
16820;SDS011;8527;49.740;6.604;2023-03-14T07:24:44;7.03;;;1.17;;
16820;SDS011;8527;49.740;6.604;2023-03-14T07:29:44;5.32;;;0.90;;
16820;SDS011;8527;49.740;6.604;2023-03-14T07:34:50;1.88;;;0.73;;
16820;SDS011;8527;49.740;6.604;2023-03-14T07:39:52;2.90;;;0.60;;
16820;SDS011;8527;49.740;6.604;2023-03-14T07:44:50;3.47;;;0.75;;
16820;SDS011;8527;49.740;6.604;2023-03-14T07:49:57;2.70;;;0.52;;
16820;SDS011;8527;49.740;6.604;2023-03-14T07:54:55;3.05;;;0.70;;
16820;SDS011;8527;49.740;6.604;2023-03-14T07:59:54;1.08;;;0.40;;
16820;SDS011;8527;49.740;6.604;2023-03-14T08:05:03;2.33;;;1.00;;
16820;SDS011;8527;49.740;6.604;2023-03-14T08:10:05;2.67;;;0.50;;
16820;SDS011;8527;49.740;6.604;2023-03-14T08:15:05;4.03;;;1.58;;
16820;SDS011;8527;49.740;6.604;2023-03-14T08:20:08;0.98;;;0.77;;
16820;SDS011;8527;49.740;6.604;2023-03-14T08:25:08;0.32;;;0.32;;
16820;SDS011;8527;49.740;6.604;2023-03-14T08:30:09;1.25;;;0.43;;
16820;SDS011;8527;49.740;6.604;2023-03-14T08:35:14;0.77;;;0.50;;
16820;SDS011;8527;49.740;6.604;2023-03-14T08:40:13;1.92;;;0.60;;
16820;SDS011;8527;49.740;6.604;2023-03-14T08:45:13;1.85;;;0.80;;
16820;SDS011;8527;49.740;6.604;2023-03-14T08:55:18;1.45;;;0.60;;
16820;SDS011;8527;49.740;6.604;2023-03-14T09:00:17;2.17;;;1.17;;
16820;SDS011;8527;49.740;6.604;2023-03-14T09:05:19;2.75;;;0.50;;
16820;SDS011;8527;49.740;6.604;2023-03-14T09:10:19;2.30;;;0.40;;
16820;SDS011;8527;49.740;6.604;2023-03-14T09:15:18;0.80;;;0.43;;
16820;SDS011;8527;49.740;6.604;2023-03-14T09:20:21;0.60;;;0.40;;
16820;SDS011;8527;49.740;6.604;2023-03-14T09:25:20;0.30;;;0.30;;
16820;SDS011;8527;49.740;6.604;2023-03-14T09:30:18;1.80;;;0.50;;
16820;SDS011;8527;49.740;6.604;2023-03-14T09:35:23;0.40;;;0.30;;
16820;SDS011;8527;49.740;6.604;2023-03-14T09:40:21;0.20;;;0.20;;
16820;SDS011;8527;49.740;6.604;2023-03-14T09:45:23;0.98;;;0.35;;
16820;SDS011;8527;49.740;6.604;2023-03-14T09:50:36;1.08;;;0.90;;
16820;SDS011;8527;49.740;6.604;2023-03-14T09:55:37;0.88;;;0.25;;
16820;SDS011;8527;49.740;6.604;2023-03-14T10:00:37;0.20;;;0.20;;
16820;SDS011;8527;49.740;6.604;2023-03-14T10:05:38;0.40;;;0.10;;
16820;SDS011;8527;49.740;6.604;2023-03-14T10:10:43;0.20;;;0.20;;
16820;SDS011;8527;49.740;6.604;2023-03-14T10:15:41;0.45;;;0.45;;
16820;SDS011;8527;49.740;6.604;2023-03-14T10:20:48;2.13;;;0.22;;
16820;SDS011;8527;49.740;6.604;2023-03-14T10:26:00;0.10;;;0.10;;
16820;SDS011;8527;49.740;6.604;2023-03-14T10:31:11;0.20;;;0.20;;
16820;SDS011;8527;49.740;6.604;2023-03-14T10:36:22;0.70;;;0.65;;
16820;SDS011;8527;49.740;6.604;2023-03-14T10:41:24;0.50;;;0.50;;
16820;SDS011;8527;49.740;6.604;2023-03-14T10:46:25;0.65;;;0.65;;
16820;SDS011;8527;49.740;6.604;2023-03-14T10:51:30;1.02;;;0.90;;
16820;SDS011;8527;49.740;6.604;2023-03-14T10:56:38;0.93;;;0.60;;
16820;SDS011;8527;49.740;6.604;2023-03-14T11:01:40;3.03;;;0.85;;
16820;SDS011;8527;49.740;6.604;2023-03-14T11:06:47;1.13;;;0.77;;
16820;SDS011;8527;49.740;6.604;2023-03-14T11:11:49;2.03;;;1.75;;
16820;SDS011;8527;49.740;6.604;2023-03-14T11:16:52;2.38;;;1.48;;
16820;SDS011;8527;49.740;6.604;2023-03-14T11:21:58;2.78;;;1.67;;
16820;SDS011;8527;49.740;6.604;2023-03-14T11:27:06;3.30;;;1.75;;
16820;SDS011;8527;49.740;6.604;2023-03-14T11:32:17;2.58;;;1.70;;
16820;SDS011;8527;49.740;6.604;2023-03-14T11:37:40;2.78;;;1.10;;
16820;SDS011;8527;49.740;6.604;2023-03-14T11:42:44;2.35;;;1.23;;
16820;SDS011;8527;49.740;6.604;2023-03-14T11:47:45;5.15;;;1.15;;
16820;SDS011;8527;49.740;6.604;2023-03-14T11:52:54;1.80;;;1.15;;
16820;SDS011;8527;49.740;6.604;2023-03-14T11:57:58;3.05;;;1.10;;
16820;SDS011;8527;49.740;6.604;2023-03-14T12:03:00;2.55;;;1.70;;
16820;SDS011;8527;49.740;6.604;2023-03-14T12:08:17;2.90;;;1.50;;
16820;SDS011;8527;49.740;6.604;2023-03-14T12:13:22;1.33;;;1.15;;
16820;SDS011;8527;49.740;6.604;2023-03-14T12:18:30;5.18;;;1.10;;
16820;SDS011;8527;49.740;6.604;2023-03-14T12:23:40;3.17;;;1.08;;
16820;SDS011;8527;49.740;6.604;2023-03-14T12:28:42;4.38;;;1.23;;
16820;SDS011;8527;49.740;6.604;2023-03-14T12:33:44;1.42;;;0.85;;
16820;SDS011;8527;49.740;6.604;2023-03-14T12:38:52;3.47;;;0.80;;
16820;SDS011;8527;49.740;6.604;2023-03-14T12:49:33;2.47;;;0.60;;
16820;SDS011;8527;49.740;6.604;2023-03-14T12:54:38;1.25;;;0.60;;
16820;SDS011;8527;49.740;6.604;2023-03-14T12:59:51;1.63;;;0.70;;
16820;SDS011;8527;49.740;6.604;2023-03-14T13:04:54;1.25;;;0.50;;
16820;SDS011;8527;49.740;6.604;2023-03-14T13:15:12;0.95;;;0.60;;
16820;SDS011;8527;49.740;6.604;2023-03-14T13:20:16;1.98;;;0.73;;
16820;SDS011;8527;49.740;6.604;2023-03-14T13:25:23;2.30;;;0.98;;
16820;SDS011;8527;49.740;6.604;2023-03-14T13:30:35;2.50;;;0.95;;
16820;SDS011;8527;49.740;6.604;2023-03-14T13:35:40;2.15;;;0.80;;
16820;SDS011;8527;49.740;6.604;2023-03-14T13:40:46;2.83;;;0.57;;
16820;SDS011;8527;49.740;6.604;2023-03-14T13:45:47;3.65;;;1.05;;
16820;SDS011;8527;49.740;6.604;2023-03-14T13:50:51;3.38;;;1.00;;
16820;SDS011;8527;49.740;6.604;2023-03-14T13:55:57;3.13;;;0.90;;
16820;SDS011;8527;49.740;6.604;2023-03-14T14:01:13;4.90;;;1.45;;
16820;SDS011;8527;49.740;6.604;2023-03-14T14:06:28;1.65;;;0.80;;
16820;SDS011;8527;49.740;6.604;2023-03-14T14:11:37;3.47;;;1.10;;
16820;SDS011;8527;49.740;6.604;2023-03-14T14:16:40;5.10;;;0.95;;
16820;SDS011;8527;49.740;6.604;2023-03-14T14:21:43;3.75;;;1.60;;
16820;SDS011;8527;49.740;6.604;2023-03-14T14:26:53;4.30;;;0.88;;
16820;SDS011;8527;49.740;6.604;2023-03-14T14:32:00;3.95;;;1.10;;
16820;SDS011;8527;49.740;6.604;2023-03-14T14:36:59;1.60;;;0.70;;
16820;SDS011;8527;49.740;6.604;2023-03-14T14:42:03;2.05;;;0.75;;
16820;SDS011;8527;49.740;6.604;2023-03-14T14:47:02;2.53;;;1.17;;
16820;SDS011;8527;49.740;6.604;2023-03-14T14:52:03;4.63;;;1.17;;
16820;SDS011;8527;49.740;6.604;2023-03-14T14:57:17;3.10;;;1.00;;
16820;SDS011;8527;49.740;6.604;2023-03-14T15:02:24;2.92;;;0.80;;
16820;SDS011;8527;49.740;6.604;2023-03-14T15:07:30;2.47;;;1.00;;
16820;SDS011;8527;49.740;6.604;2023-03-14T15:12:31;4.00;;;0.90;;
16820;SDS011;8527;49.740;6.604;2023-03-14T15:17:31;3.55;;;0.88;;
16820;SDS011;8527;49.740;6.604;2023-03-14T15:22:31;3.03;;;0.88;;
16820;SDS011;8527;49.740;6.604;2023-03-14T15:27:32;2.63;;;0.90;;
16820;SDS011;8527;49.740;6.604;2023-03-14T15:32:31;2.42;;;0.80;;
16820;SDS011;8527;49.740;6.604;2023-03-14T15:37:30;1.85;;;0.52;;
16820;SDS011;8527;49.740;6.604;2023-03-14T15:42:28;3.00;;;0.82;;
16820;SDS011;8527;49.740;6.604;2023-03-14T15:47:29;4.25;;;1.15;;
16820;SDS011;8527;49.740;6.604;2023-03-14T15:52:28;2.95;;;1.00;;
16820;SDS011;8527;49.740;6.604;2023-03-14T15:57:26;5.32;;;1.40;;
16820;SDS011;8527;49.740;6.604;2023-03-14T16:02:24;5.32;;;1.33;;
16820;SDS011;8527;49.740;6.604;2023-03-14T16:07:26;3.22;;;1.45;;
16820;SDS011;8527;49.740;6.604;2023-03-14T16:12:28;5.30;;;1.02;;
16820;SDS011;8527;49.740;6.604;2023-03-14T16:17:26;4.97;;;1.30;;
16820;SDS011;8527;49.740;6.604;2023-03-14T16:22:27;3.20;;;0.93;;
16820;SDS011;8527;49.740;6.604;2023-03-14T16:27:32;2.92;;;1.05;;
16820;SDS011;8527;49.740;6.604;2023-03-14T16:32:33;5.90;;;0.88;;
16820;SDS011;8527;49.740;6.604;2023-03-14T16:37:34;5.80;;;2.10;;
16820;SDS011;8527;49.740;6.604;2023-03-14T16:42:32;2.33;;;1.23;;
16820;SDS011;8527;49.740;6.604;2023-03-14T16:47:31;3.35;;;1.45;;
16820;SDS011;8527;49.740;6.604;2023-03-14T16:52:29;3.35;;;1.63;;
16820;SDS011;8527;49.740;6.604;2023-03-14T16:57:30;5.07;;;2.30;;
16820;SDS011;8527;49.740;6.604;2023-03-14T17:02:29;2.28;;;0.93;;
16820;SDS011;8527;49.740;6.604;2023-03-14T17:07:27;4.70;;;1.50;;
16820;SDS011;8527;49.740;6.604;2023-03-14T17:12:26;2.38;;;1.25;;
16820;SDS011;8527;49.740;6.604;2023-03-14T17:17:27;3.92;;;1.30;;
16820;SDS011;8527;49.740;6.604;2023-03-14T17:22:25;1.52;;;0.73;;
16820;SDS011;8527;49.740;6.604;2023-03-14T17:27:24;3.00;;;1.15;;
16820;SDS011;8527;49.740;6.604;2023-03-14T17:32:22;1.58;;;0.73;;
16820;SDS011;8527;49.740;6.604;2023-03-14T17:37:24;2.28;;;0.80;;
16820;SDS011;8527;49.740;6.604;2023-03-14T17:42:23;2.35;;;0.80;;
16820;SDS011;8527;49.740;6.604;2023-03-14T17:47:24;1.33;;;0.80;;
16820;SDS011;8527;49.740;6.604;2023-03-14T17:52:25;4.60;;;1.58;;
16820;SDS011;8527;49.740;6.604;2023-03-14T17:57:25;5.93;;;1.60;;
16820;SDS011;8527;49.740;6.604;2023-03-14T18:02:28;4.35;;;1.48;;
16820;SDS011;8527;49.740;6.604;2023-03-14T18:12:33;5.93;;;3.45;;
16820;SDS011;8527;49.740;6.604;2023-03-14T18:17:31;4.22;;;1.58;;
16820;SDS011;8527;49.740;6.604;2023-03-14T18:22:29;17.60;;;10.88;;
16820;SDS011;8527;49.740;6.604;2023-03-14T18:27:32;3.15;;;2.03;;
16820;SDS011;8527;49.740;6.604;2023-03-14T18:32:30;5.22;;;2.45;;
16820;SDS011;8527;49.740;6.604;2023-03-14T18:37:31;6.18;;;2.97;;
16820;SDS011;8527;49.740;6.604;2023-03-14T18:42:32;11.20;;;5.90;;
16820;SDS011;8527;49.740;6.604;2023-03-14T18:47:33;9.88;;;5.22;;
16820;SDS011;8527;49.740;6.604;2023-03-14T18:52:32;10.73;;;4.65;;
16820;SDS011;8527;49.740;6.604;2023-03-14T18:57:34;5.40;;;2.67;;
16820;SDS011;8527;49.740;6.604;2023-03-14T19:02:32;8.48;;;5.30;;
16820;SDS011;8527;49.740;6.604;2023-03-14T19:07:31;8.98;;;5.07;;
16820;SDS011;8527;49.740;6.604;2023-03-14T19:12:30;7.35;;;5.22;;
16820;SDS011;8527;49.740;6.604;2023-03-14T19:17:31;10.02;;;2.60;;
16820;SDS011;8527;49.740;6.604;2023-03-14T19:22:32;11.45;;;4.22;;
16820;SDS011;8527;49.740;6.604;2023-03-14T19:27:33;5.82;;;3.00;;
16820;SDS011;8527;49.740;6.604;2023-03-14T19:32:37;4.80;;;2.90;;
16820;SDS011;8527;49.740;6.604;2023-03-14T19:37:39;5.47;;;2.10;;
16820;SDS011;8527;49.740;6.604;2023-03-14T19:42:39;6.90;;;2.70;;
16820;SDS011;8527;49.740;6.604;2023-03-14T19:47:47;10.00;;;2.67;;
16820;SDS011;8527;49.740;6.604;2023-03-14T19:52:46;8.02;;;3.28;;
16820;SDS011;8527;49.740;6.604;2023-03-14T19:57:48;16.25;;;6.30;;
16820;SDS011;8527;49.740;6.604;2023-03-14T20:02:51;7.78;;;2.95;;
16820;SDS011;8527;49.740;6.604;2023-03-14T20:07:51;5.13;;;2.28;;
16820;SDS011;8527;49.740;6.604;2023-03-14T20:12:49;5.95;;;2.25;;
16820;SDS011;8527;49.740;6.604;2023-03-14T20:17:51;9.05;;;3.80;;
16820;SDS011;8527;49.740;6.604;2023-03-14T20:22:55;7.65;;;2.40;;
16820;SDS011;8527;49.740;6.604;2023-03-14T20:27:54;5.60;;;2.00;;
16820;SDS011;8527;49.740;6.604;2023-03-14T20:32:55;7.68;;;2.58;;
16820;SDS011;8527;49.740;6.604;2023-03-14T20:37:54;4.88;;;1.92;;
16820;SDS011;8527;49.740;6.604;2023-03-14T20:42:53;6.28;;;2.33;;
16820;SDS011;8527;49.740;6.604;2023-03-14T20:47:51;8.10;;;2.97;;
16820;SDS011;8527;49.740;6.604;2023-03-14T20:52:52;4.82;;;2.33;;
16820;SDS011;8527;49.740;6.604;2023-03-14T20:57:51;4.78;;;2.10;;
16820;SDS011;8527;49.740;6.604;2023-03-14T21:02:49;7.78;;;2.50;;
16820;SDS011;8527;49.740;6.604;2023-03-14T21:07:53;7.25;;;2.60;;
16820;SDS011;8527;49.740;6.604;2023-03-14T21:12:52;7.50;;;2.53;;
16820;SDS011;8527;49.740;6.604;2023-03-14T21:17:50;3.10;;;2.22;;
16820;SDS011;8527;49.740;6.604;2023-03-14T21:22:50;7.18;;;2.40;;
16820;SDS011;8527;49.740;6.604;2023-03-14T21:27:53;6.93;;;2.70;;
16820;SDS011;8527;49.740;6.604;2023-03-14T21:32:51;7.45;;;2.85;;
16820;SDS011;8527;49.740;6.604;2023-03-14T21:37:52;5.22;;;2.50;;
16820;SDS011;8527;49.740;6.604;2023-03-14T21:42:56;4.88;;;2.90;;
16820;SDS011;8527;49.740;6.604;2023-03-14T21:47:56;5.63;;;3.38;;
16820;SDS011;8527;49.740;6.604;2023-03-14T21:52:59;10.20;;;3.95;;
16820;SDS011;8527;49.740;6.604;2023-03-14T21:57:57;7.68;;;2.50;;
16820;SDS011;8527;49.740;6.604;2023-03-14T22:02:56;6.05;;;2.80;;
16820;SDS011;8527;49.740;6.604;2023-03-14T22:07:55;5.45;;;2.70;;
16820;SDS011;8527;49.740;6.604;2023-03-14T22:12:55;7.57;;;3.53;;
16820;SDS011;8527;49.740;6.604;2023-03-14T22:17:54;5.60;;;2.72;;
16820;SDS011;8527;49.740;6.604;2023-03-14T22:22:52;7.00;;;3.03;;
16820;SDS011;8527;49.740;6.604;2023-03-14T22:27:50;4.07;;;2.50;;
16820;SDS011;8527;49.740;6.604;2023-03-14T22:32:51;6.90;;;2.80;;
16820;SDS011;8527;49.740;6.604;2023-03-14T22:37:50;7.18;;;2.22;;
16820;SDS011;8527;49.740;6.604;2023-03-14T22:42:50;7.97;;;2.30;;
16820;SDS011;8527;49.740;6.604;2023-03-14T22:47:49;6.28;;;2.10;;
16820;SDS011;8527;49.740;6.604;2023-03-14T22:52:50;7.35;;;2.10;;
16820;SDS011;8527;49.740;6.604;2023-03-14T22:57:50;3.03;;;2.05;;
16820;SDS011;8527;49.740;6.604;2023-03-14T23:02:55;4.72;;;2.25;;
16820;SDS011;8527;49.740;6.604;2023-03-14T23:07:54;4.60;;;1.95;;
16820;SDS011;8527;49.740;6.604;2023-03-14T23:12:52;5.28;;;2.13;;
16820;SDS011;8527;49.740;6.604;2023-03-14T23:17:51;11.52;;;2.33;;
16820;SDS011;8527;49.740;6.604;2023-03-14T23:22:56;9.50;;;2.17;;
16820;SDS011;8527;49.740;6.604;2023-03-14T23:27:54;3.63;;;1.83;;
16820;SDS011;8527;49.740;6.604;2023-03-14T23:32:55;9.13;;;2.00;;
16820;SDS011;8527;49.740;6.604;2023-03-14T23:37:54;3.47;;;1.95;;
16820;SDS011;8527;49.740;6.604;2023-03-14T23:42:55;5.25;;;1.83;;
16820;SDS011;8527;49.740;6.604;2023-03-14T23:47:56;6.70;;;2.10;;
16820;SDS011;8527;49.740;6.604;2023-03-14T23:52:57;3.20;;;1.83;;
16820;SDS011;8527;49.740;6.604;2023-03-14T23:57:56;4.65;;;2.17;;
